KCFV

Coffeyville Municipal Airport

Coffeyville, Kansas, USA
METAR KCFV 190252Z AUTO 17007KT 10SM CLR 01/M08 A3019 RMK AO2 SLP231 T00061078 51006
Observed Flight Rules
Jan-19 @ 02:52 UTC (57 minutes ago) Visual Flight Rules
Wind Visibility Clouds
170° at 7 knots 10 miles
  • Clear skies
Temperatures Readings
Current 1°C / 34°F
Dewpoint -8°C / 18°F
Humidity 51%
Altimeter 30.19" Hg
Pressure 1023.1 hPa
Elevation 225
METAR KCFV 190252Z AUTO 17007KT 10SM CLR 01/M08 A3019 RMK AO2 SLP231 T00061078 51006
Observed Flight Rules
Jan-19 @ 02:52 UTC
(57 minutes ago)
VFR
Wind Visibility
170° at 7 knots 10 miles
Clouds
  • Clear skies
Temperature Dewpoint
1°C / 34°F -8°C / 18°F
Humidity Altimeter Pressure
51% 30.19" Hg 1023.1 hPa